UAL1816 KDEN-KOMA
Flight info
| Callsign | UAL1816 |
|---|---|
| Flight time | 1h 4m |
| Altitude | 37000 |
| Route | CHUWY1 CHUWY ONL HOWRY3 |
| Aircraft | B738/M-SDE2E3FGHIRWXY/LB1 |
Departure
| Time | 2026-05-04 12:41 |
|---|---|
| Airport | Denver International Airport (KDEN) |
Arrival
| Time | 2026-05-04 13:46 |
|---|---|
| Airport | Eppley Airfield (KOMA) |
| Time | Latitude | Longitude | Altitude | Speed | Heading |
|---|---|---|---|---|---|
| 2026-05-04 12:25 | 39.86537 | -104.66879 | 5383 ft | 0 kts | 359° |
| 2026-05-04 12:34 | 39.86535 | -104.66879 | 5385 ft | 1 kts | 359° |
| 2026-05-04 12:35 | 39.86518 | -104.66880 | 5383 ft | 3 kts | 6° |
| 2026-05-04 12:35 | 39.86499 | -104.66884 | 5382 ft | 3 kts | 18° |
| 2026-05-04 12:35 | 39.86482 | -104.66894 | 5385 ft | 3 kts | 42° |
| 2026-05-04 12:35 | 39.86472 | -104.66910 | 5380 ft | 2 kts | 83° |
| 2026-05-04 12:36 | 39.86471 | -104.66916 | 5383 ft | 1 kts | 90° |
| 2026-05-04 12:37 | 39.86470 | -104.66834 | 5383 ft | 14 kts | 91° |
| 2026-05-04 12:37 | 39.86469 | -104.66709 | 5385 ft | 14 kts | 90° |
| 2026-05-04 12:37 | 39.86474 | -104.66588 | 5385 ft | 13 kts | 79° |
| 2026-05-04 12:37 | 39.86501 | -104.66480 | 5385 ft | 16 kts | 86° |
| 2026-05-04 12:38 | 39.86501 | -104.66310 | 5385 ft | 21 kts | 90° |
| 2026-05-04 12:38 | 39.86499 | -104.66131 | 5378 ft | 22 kts | 90° |
| 2026-05-04 12:38 | 39.86498 | -104.65937 | 5372 ft | 22 kts | 89° |
| 2026-05-04 12:38 | 39.86496 | -104.65718 | 5366 ft | 31 kts | 91° |
| 2026-05-04 12:39 | 39.86495 | -104.65410 | 5359 ft | 38 kts | 89° |
| 2026-05-04 12:39 | 39.86495 | -104.65060 | 5353 ft | 43 kts | 91° |
| 2026-05-04 12:39 | 39.86489 | -104.64673 | 5346 ft | 43 kts | 90° |
| 2026-05-04 12:39 | 39.86487 | -104.64304 | 5336 ft | 42 kts | 90° |
| 2026-05-04 12:40 | 39.86439 | -104.64134 | 5336 ft | 13 kts | 179° |
| 2026-05-04 12:40 | 39.86352 | -104.64134 | 5338 ft | 13 kts | 180° |
| 2026-05-04 12:40 | 39.86100 | -104.64138 | 5343 ft | 68 kts | 181° |
| 2026-05-04 12:40 | 39.85412 | -104.64146 | 5349 ft | 128 kts | 180° |
| 2026-05-04 12:41 | 39.84371 | -104.64159 | 5413 ft | 171 kts | 182° |
| 2026-05-04 12:41 | 39.83181 | -104.64173 | 6086 ft | 177 kts | 183° |
| 2026-05-04 12:41 | 39.81955 | -104.64234 | 6704 ft | 186 kts | 185° |
| 2026-05-04 12:41 | 39.80615 | -104.64278 | 7225 ft | 195 kts | 178° |
| 2026-05-04 12:42 | 39.79258 | -104.63820 | 7710 ft | 216 kts | 154° |
| 2026-05-04 12:42 | 39.78148 | -104.62767 | 8070 ft | 227 kts | 134° |
| 2026-05-04 12:42 | 39.77348 | -104.60988 | 8292 ft | 249 kts | 100° |
| 2026-05-04 12:42 | 39.77523 | -104.58697 | 8473 ft | 269 kts | 63° |
| 2026-05-04 12:43 | 39.78682 | -104.56891 | 8716 ft | 286 kts | 30° |
| 2026-05-04 12:43 | 39.80580 | -104.56154 | 9461 ft | 285 kts | 0° |
| 2026-05-04 12:43 | 39.82558 | -104.55881 | 10261 ft | 290 kts | 11° |
| 2026-05-04 12:43 | 39.84543 | -104.55162 | 10575 ft | 313 kts | 14° |
| 2026-05-04 12:44 | 39.86711 | -104.54298 | 10764 ft | 338 kts | 15° |
| 2026-05-04 12:44 | 39.89025 | -104.53345 | 11011 ft | 358 kts | 15° |
| 2026-05-04 12:44 | 39.91356 | -104.52366 | 11555 ft | 365 kts | 16° |
| 2026-05-04 12:44 | 39.93772 | -104.51340 | 12298 ft | 367 kts | 15° |
| 2026-05-04 12:45 | 39.96142 | -104.50327 | 13045 ft | 368 kts | 15° |
| 2026-05-04 12:45 | 39.98430 | -104.49347 | 13722 ft | 371 kts | 15° |
| 2026-05-04 12:45 | 40.00805 | -104.48329 | 14324 ft | 375 kts | 15° |
| 2026-05-04 12:45 | 40.03241 | -104.47285 | 14941 ft | 378 kts | 15° |
| 2026-05-04 12:46 | 40.05720 | -104.46221 | 15568 ft | 382 kts | 15° |
| 2026-05-04 12:46 | 40.08126 | -104.45188 | 16114 ft | 385 kts | 15° |
| 2026-05-04 12:46 | 40.10688 | -104.44086 | 16768 ft | 389 kts | 15° |
| 2026-05-04 12:46 | 40.13246 | -104.42986 | 17399 ft | 393 kts | 15° |
| 2026-05-04 12:47 | 40.15841 | -104.41869 | 18023 ft | 396 kts | 15° |
| 2026-05-04 12:47 | 40.18394 | -104.40770 | 18562 ft | 400 kts | 15° |
| 2026-05-04 12:47 | 40.21052 | -104.39624 | 19087 ft | 404 kts | 15° |
| 2026-05-04 12:47 | 40.23592 | -104.38528 | 19593 ft | 407 kts | 15° |
| 2026-05-04 12:48 | 40.26294 | -104.37362 | 20141 ft | 410 kts | 14° |
| 2026-05-04 12:48 | 40.29018 | -104.36185 | 20649 ft | 414 kts | 14° |
| 2026-05-04 12:48 | 40.31771 | -104.34994 | 21108 ft | 419 kts | 14° |
| 2026-05-04 12:48 | 40.34544 | -104.33794 | 21582 ft | 422 kts | 14° |
| 2026-05-04 12:49 | 40.37276 | -104.32610 | 22042 ft | 426 kts | 14° |
| 2026-05-04 12:49 | 40.40087 | -104.31391 | 22511 ft | 430 kts | 14° |
| 2026-05-04 12:49 | 40.42938 | -104.30153 | 22950 ft | 433 kts | 14° |
| 2026-05-04 12:49 | 40.45809 | -104.28905 | 23403 ft | 437 kts | 14° |
| 2026-05-04 12:50 | 40.48701 | -104.27645 | 23812 ft | 439 kts | 14° |
| 2026-05-04 12:50 | 40.51567 | -104.26399 | 24185 ft | 442 kts | 13° |
| 2026-05-04 12:50 | 40.54433 | -104.25109 | 24530 ft | 447 kts | 17° |
| 2026-05-04 12:50 | 40.57237 | -104.23260 | 24875 ft | 457 kts | 27° |
| 2026-05-04 12:51 | 40.59826 | -104.20773 | 25205 ft | 465 kts | 37° |
| 2026-05-04 12:51 | 40.62128 | -104.17739 | 25594 ft | 470 kts | 43° |
| 2026-05-04 12:51 | 40.64339 | -104.14549 | 25928 ft | 474 kts | 44° |
| 2026-05-04 12:51 | 40.66550 | -104.11304 | 26255 ft | 478 kts | 44° |
| 2026-05-04 12:52 | 40.68741 | -104.08089 | 26548 ft | 481 kts | 44° |
| 2026-05-04 12:52 | 40.70958 | -104.04857 | 26864 ft | 483 kts | 43° |
| 2026-05-04 12:52 | 40.73196 | -104.01618 | 27210 ft | 485 kts | 43° |
| 2026-05-04 12:52 | 40.75480 | -103.98330 | 27547 ft | 488 kts | 43° |
| 2026-05-04 12:53 | 40.77633 | -103.95239 | 27808 ft | 490 kts | 43° |
| 2026-05-04 12:53 | 40.79871 | -103.92028 | 28024 ft | 493 kts | 43° |
| 2026-05-04 12:53 | 40.82139 | -103.88772 | 28299 ft | 496 kts | 43° |
| 2026-05-04 12:53 | 40.84390 | -103.85535 | 28581 ft | 498 kts | 43° |
| 2026-05-04 12:54 | 40.86579 | -103.82383 | 28938 ft | 498 kts | 43° |
| 2026-05-04 12:54 | 40.88898 | -103.79037 | 29347 ft | 498 kts | 43° |
| 2026-05-04 12:54 | 40.91106 | -103.75847 | 29659 ft | 498 kts | 43° |
| 2026-05-04 12:54 | 40.93447 | -103.72462 | 30012 ft | 498 kts | 43° |
| 2026-05-04 12:55 | 40.95691 | -103.69214 | 30367 ft | 497 kts | 43° |
| 2026-05-04 12:55 | 40.98006 | -103.65857 | 30935 ft | 491 kts | 43° |
| 2026-05-04 12:55 | 41.00224 | -103.62636 | 31373 ft | 488 kts | 43° |
| 2026-05-04 12:55 | 41.02479 | -103.59363 | 31661 ft | 489 kts | 43° |
| 2026-05-04 12:56 | 41.04703 | -103.56134 | 31889 ft | 491 kts | 43° |
| 2026-05-04 12:56 | 41.06940 | -103.52881 | 32172 ft | 490 kts | 43° |
| 2026-05-04 12:56 | 41.09087 | -103.49755 | 32517 ft | 489 kts | 43° |
| 2026-05-04 12:56 | 41.11333 | -103.46477 | 32915 ft | 486 kts | 43° |
| 2026-05-04 12:57 | 41.13543 | -103.43250 | 33258 ft | 485 kts | 43° |
| 2026-05-04 12:57 | 41.15670 | -103.40142 | 33528 ft | 485 kts | 43° |
| 2026-05-04 12:57 | 41.17937 | -103.36827 | 33795 ft | 485 kts | 43° |
| 2026-05-04 12:57 | 41.20156 | -103.33578 | 34050 ft | 484 kts | 43° |
| 2026-05-04 12:58 | 41.22418 | -103.30263 | 34287 ft | 484 kts | 43° |
| 2026-05-04 12:58 | 41.24677 | -103.26950 | 34502 ft | 484 kts | 43° |
| 2026-05-04 12:58 | 41.26834 | -103.23786 | 34707 ft | 485 kts | 43° |
| 2026-05-04 12:58 | 41.29095 | -103.20468 | 34922 ft | 485 kts | 43° |
| 2026-05-04 12:59 | 41.31263 | -103.17281 | 35149 ft | 485 kts | 43° |
| 2026-05-04 12:59 | 41.33312 | -103.13696 | 35348 ft | 492 kts | 56° |
| 2026-05-04 12:59 | 41.34736 | -103.09515 | 35608 ft | 499 kts | 69° |
| 2026-05-04 12:59 | 41.35554 | -103.05026 | 35824 ft | 502 kts | 81° |
| 2026-05-04 13:00 | 41.35812 | -103.00555 | 36044 ft | 503 kts | 85° |
| 2026-05-04 13:00 | 41.35968 | -102.95904 | 36241 ft | 504 kts | 86° |
| 2026-05-04 13:00 | 41.36103 | -102.91277 | 36402 ft | 505 kts | 86° |
| 2026-05-04 13:00 | 41.36226 | -102.87144 | 36577 ft | 505 kts | 86° |
| 2026-05-04 13:01 | 41.36369 | -102.82656 | 36756 ft | 505 kts | 86° |
| 2026-05-04 13:01 | 41.36702 | -102.73351 | 36750 ft | 507 kts | 85° |
| 2026-05-04 13:02 | 41.37056 | -102.64103 | 36717 ft | 503 kts | 85° |
| 2026-05-04 13:02 | 41.37409 | -102.54830 | 36736 ft | 500 kts | 85° |
| 2026-05-04 13:03 | 41.37752 | -102.45598 | 36747 ft | 498 kts | 85° |
| 2026-05-04 13:03 | 41.38084 | -102.36383 | 36758 ft | 498 kts | 85° |
| 2026-05-04 13:04 | 41.38406 | -102.27234 | 36751 ft | 498 kts | 85° |
| 2026-05-04 13:04 | 41.38719 | -102.18119 | 36741 ft | 499 kts | 86° |
| 2026-05-04 13:05 | 41.39020 | -102.09149 | 36757 ft | 500 kts | 86° |
| 2026-05-04 13:05 | 41.39321 | -101.99983 | 36771 ft | 502 kts | 86° |
| 2026-05-04 13:06 | 41.39613 | -101.90857 | 36768 ft | 503 kts | 86° |
| 2026-05-04 13:06 | 41.39901 | -101.81629 | 36765 ft | 504 kts | 86° |
| 2026-05-04 13:07 | 41.40184 | -101.72292 | 36759 ft | 505 kts | 86° |
| 2026-05-04 13:07 | 41.40461 | -101.62940 | 36759 ft | 505 kts | 86° |
| 2026-05-04 13:08 | 41.40728 | -101.53656 | 36733 ft | 505 kts | 86° |
| 2026-05-04 13:08 | 41.40989 | -101.44313 | 36727 ft | 504 kts | 86° |
| 2026-05-04 13:09 | 41.41243 | -101.34975 | 36721 ft | 504 kts | 86° |
| 2026-05-04 13:09 | 41.41489 | -101.25646 | 36735 ft | 504 kts | 86° |
| 2026-05-04 13:10 | 41.41725 | -101.16395 | 36730 ft | 504 kts | 86° |
| 2026-05-04 13:10 | 41.41956 | -101.07063 | 36731 ft | 504 kts | 86° |
| 2026-05-04 13:11 | 41.42179 | -100.97729 | 36725 ft | 504 kts | 86° |
| 2026-05-04 13:11 | 41.42395 | -100.88399 | 36738 ft | 504 kts | 86° |
| 2026-05-04 13:12 | 41.42603 | -100.79068 | 36743 ft | 504 kts | 86° |
| 2026-05-04 13:12 | 41.42802 | -100.69802 | 36739 ft | 504 kts | 87° |
| 2026-05-04 13:13 | 41.42995 | -100.60470 | 36736 ft | 504 kts | 87° |
| 2026-05-04 13:13 | 41.43181 | -100.51136 | 36736 ft | 504 kts | 87° |
| 2026-05-04 13:14 | 41.43359 | -100.41811 | 36711 ft | 503 kts | 87° |
| 2026-05-04 13:14 | 41.43529 | -100.32492 | 36715 ft | 503 kts | 87° |
| 2026-05-04 13:15 | 41.43690 | -100.23242 | 36709 ft | 502 kts | 87° |
| 2026-05-04 13:15 | 41.43845 | -100.13947 | 36717 ft | 502 kts | 87° |
| 2026-05-04 13:16 | 41.43992 | -100.04653 | 36716 ft | 501 kts | 87° |
| 2026-05-04 13:16 | 41.44131 | -99.95442 | 36725 ft | 500 kts | 87° |
| 2026-05-04 13:17 | 41.44263 | -99.86181 | 36744 ft | 499 kts | 87° |
| 2026-05-04 13:17 | 41.44399 | -99.76038 | 36764 ft | 499 kts | 88° |
| 2026-05-04 13:18 | 41.44624 | -99.57557 | 36757 ft | 498 kts | 88° |
| 2026-05-04 13:18 | 41.44815 | -99.39430 | 36749 ft | 497 kts | 88° |
| 2026-05-04 13:19 | 41.44988 | -99.21021 | 36708 ft | 496 kts | 88° |
| 2026-05-04 13:19 | 41.45132 | -99.02637 | 36727 ft | 496 kts | 88° |
| 2026-05-04 13:20 | 41.45228 | -98.84255 | 36707 ft | 496 kts | 88° |
| 2026-05-04 13:20 | 41.45305 | -98.65873 | 36725 ft | 495 kts | 88° |
| 2026-05-04 13:21 | 41.45354 | -98.47630 | 36709 ft | 495 kts | 88° |
| 2026-05-04 13:21 | 41.45364 | -98.38400 | 35745 ft | 498 kts | 88° |
| 2026-05-04 13:21 | 41.45369 | -98.29166 | 34470 ft | 498 kts | 88° |
| 2026-05-04 13:21 | 41.45368 | -98.19922 | 33021 ft | 499 kts | 88° |
| 2026-05-04 13:22 | 41.45359 | -98.10671 | 31505 ft | 499 kts | 89° |
| 2026-05-04 13:22 | 41.45349 | -98.04071 | 30429 ft | 499 kts | 89° |
| 2026-05-04 13:22 | 41.45339 | -97.99450 | 29634 ft | 499 kts | 89° |
| 2026-05-04 13:22 | 41.45327 | -97.94822 | 28711 ft | 499 kts | 89° |
| 2026-05-04 13:23 | 41.45313 | -97.90204 | 27934 ft | 496 kts | 89° |
| 2026-05-04 13:23 | 41.45298 | -97.85706 | 27355 ft | 489 kts | 89° |
| 2026-05-04 13:23 | 41.45281 | -97.81194 | 26762 ft | 483 kts | 89° |
| 2026-05-04 13:23 | 41.45262 | -97.76743 | 26153 ft | 478 kts | 89° |
| 2026-05-04 13:24 | 41.45242 | -97.72336 | 25561 ft | 473 kts | 89° |
| 2026-05-04 13:24 | 41.45221 | -97.67981 | 24988 ft | 468 kts | 89° |
| 2026-05-04 13:24 | 41.45199 | -97.63658 | 24419 ft | 463 kts | 89° |
| 2026-05-04 13:25 | 41.45150 | -97.55163 | 23263 ft | 456 kts | 89° |
| 2026-05-04 13:25 | 41.45124 | -97.50958 | 22618 ft | 452 kts | 89° |
| 2026-05-04 13:25 | 41.45097 | -97.46911 | 22045 ft | 448 kts | 89° |
| 2026-05-04 13:25 | 41.45072 | -97.43197 | 21523 ft | 444 kts | 89° |
| 2026-05-04 13:26 | 41.45042 | -97.39103 | 20949 ft | 440 kts | 89° |
| 2026-05-04 13:26 | 41.45009 | -97.35054 | 20389 ft | 436 kts | 90° |
| 2026-05-04 13:26 | 41.44698 | -97.31118 | 20013 ft | 430 kts | 100° |
| 2026-05-04 13:26 | 41.44050 | -97.27263 | 19677 ft | 425 kts | 103° |
| 2026-05-04 13:27 | 41.43339 | -97.23444 | 19141 ft | 423 kts | 103° |
| 2026-05-04 13:27 | 41.42629 | -97.19651 | 18614 ft | 421 kts | 103° |
| 2026-05-04 13:27 | 41.41955 | -97.15946 | 18068 ft | 420 kts | 103° |
| 2026-05-04 13:27 | 41.41288 | -97.12168 | 17433 ft | 418 kts | 103° |
| 2026-05-04 13:28 | 41.40684 | -97.08682 | 16893 ft | 416 kts | 102° |
| 2026-05-04 13:28 | 41.40058 | -97.05031 | 16423 ft | 411 kts | 102° |
| 2026-05-04 13:28 | 41.39429 | -97.01355 | 16031 ft | 405 kts | 102° |
| 2026-05-04 13:28 | 41.38839 | -96.97915 | 15547 ft | 402 kts | 102° |
| 2026-05-04 13:29 | 41.38219 | -96.94299 | 15020 ft | 400 kts | 102° |
| 2026-05-04 13:29 | 41.37603 | -96.90726 | 14501 ft | 398 kts | 102° |
| 2026-05-04 13:29 | 41.36983 | -96.87140 | 13978 ft | 397 kts | 102° |
| 2026-05-04 13:29 | 41.36387 | -96.83698 | 13469 ft | 396 kts | 102° |
| 2026-05-04 13:30 | 41.35767 | -96.80136 | 12883 ft | 394 kts | 102° |
| 2026-05-04 13:30 | 41.35168 | -96.76695 | 12351 ft | 391 kts | 102° |
| 2026-05-04 13:30 | 41.34562 | -96.73225 | 11830 ft | 389 kts | 102° |
| 2026-05-04 13:30 | 41.33960 | -96.69787 | 11315 ft | 386 kts | 102° |
| 2026-05-04 13:31 | 41.33373 | -96.66436 | 10998 ft | 379 kts | 102° |
| 2026-05-04 13:31 | 41.32783 | -96.63078 | 10827 ft | 367 kts | 102° |
| 2026-05-04 13:31 | 41.32210 | -96.59820 | 10668 ft | 357 kts | 102° |
| 2026-05-04 13:31 | 41.31654 | -96.56657 | 10513 ft | 347 kts | 102° |
| 2026-05-04 13:32 | 41.31111 | -96.53580 | 10353 ft | 337 kts | 102° |
| 2026-05-04 13:32 | 41.30582 | -96.50583 | 10208 ft | 328 kts | 102° |
| 2026-05-04 13:32 | 41.30067 | -96.47667 | 10077 ft | 320 kts | 102° |
| 2026-05-04 13:32 | 41.29570 | -96.44862 | 9991 ft | 310 kts | 102° |
| 2026-05-04 13:33 | 41.29074 | -96.42063 | 9590 ft | 313 kts | 102° |
| 2026-05-04 13:33 | 41.28594 | -96.39354 | 9265 ft | 313 kts | 102° |
| 2026-05-04 13:33 | 41.28094 | -96.36539 | 8952 ft | 312 kts | 102° |
| 2026-05-04 13:33 | 41.27605 | -96.33791 | 8633 ft | 310 kts | 102° |
| 2026-05-04 13:34 | 41.27109 | -96.31010 | 8332 ft | 309 kts | 102° |
| 2026-05-04 13:34 | 41.26623 | -96.28296 | 8045 ft | 307 kts | 102° |
| 2026-05-04 13:34 | 41.26135 | -96.25565 | 7746 ft | 307 kts | 102° |
| 2026-05-04 13:34 | 41.25644 | -96.22825 | 7454 ft | 306 kts | 102° |
| 2026-05-04 13:35 | 41.25169 | -96.20174 | 7169 ft | 305 kts | 102° |
| 2026-05-04 13:35 | 41.24204 | -96.14793 | 6565 ft | 304 kts | 102° |
| 2026-05-04 13:35 | 41.23716 | -96.12078 | 6266 ft | 303 kts | 102° |
| 2026-05-04 13:36 | 41.23237 | -96.09418 | 6060 ft | 295 kts | 102° |
| 2026-05-04 13:36 | 41.22763 | -96.06782 | 5688 ft | 290 kts | 102° |
| 2026-05-04 13:36 | 41.22302 | -96.04223 | 5378 ft | 282 kts | 103° |
| 2026-05-04 13:36 | 41.21851 | -96.01726 | 5108 ft | 275 kts | 103° |
| 2026-05-04 13:37 | 41.21412 | -95.99304 | 4939 ft | 263 kts | 103° |
| 2026-05-04 13:37 | 41.20985 | -95.97033 | 4806 ft | 248 kts | 109° |
| 2026-05-04 13:37 | 41.20172 | -95.95196 | 4682 ft | 231 kts | 134° |
| 2026-05-04 13:37 | 41.19459 | -95.94177 | 4621 ft | 223 kts | 136° |
| 2026-05-04 13:38 | 41.18062 | -95.92251 | 4526 ft | 219 kts | 136° |
| 2026-05-04 13:38 | 41.17007 | -95.90814 | 4477 ft | 216 kts | 137° |
| 2026-05-04 13:38 | 41.15967 | -95.89390 | 4437 ft | 214 kts | 136° |
| 2026-05-04 13:38 | 41.14921 | -95.87975 | 4407 ft | 215 kts | 137° |
| 2026-05-04 13:39 | 41.13884 | -95.86572 | 4370 ft | 213 kts | 136° |
| 2026-05-04 13:39 | 41.12859 | -95.85188 | 4325 ft | 208 kts | 137° |
| 2026-05-04 13:39 | 41.11882 | -95.83881 | 4302 ft | 208 kts | 137° |
| 2026-05-04 13:39 | 41.10925 | -95.82423 | 4137 ft | 214 kts | 120° |
| 2026-05-04 13:40 | 41.10620 | -95.80519 | 3946 ft | 213 kts | 82° |
| 2026-05-04 13:40 | 41.11162 | -95.78785 | 3765 ft | 205 kts | 52° |
| 2026-05-04 13:40 | 41.11964 | -95.77359 | 3626 ft | 206 kts | 52° |
| 2026-05-04 13:40 | 41.12803 | -95.75838 | 3457 ft | 207 kts | 52° |
| 2026-05-04 13:41 | 41.13666 | -95.74318 | 3279 ft | 205 kts | 51° |
| 2026-05-04 13:41 | 41.14752 | -95.73263 | 3067 ft | 197 kts | 11° |
| 2026-05-04 13:41 | 41.16013 | -95.73540 | 2876 ft | 185 kts | 319° |
| 2026-05-04 13:42 | 41.17419 | -95.76145 | 2801 ft | 183 kts | 304° |
| 2026-05-04 13:42 | 41.18125 | -95.77452 | 2777 ft | 176 kts | 308° |
| 2026-05-04 13:42 | 41.19009 | -95.78598 | 2804 ft | 180 kts | 314° |
| 2026-05-04 13:42 | 41.19961 | -95.79670 | 2802 ft | 178 kts | 319° |
| 2026-05-04 13:43 | 41.20923 | -95.80635 | 2779 ft | 174 kts | 319° |
| 2026-05-04 13:43 | 41.21911 | -95.81576 | 2727 ft | 180 kts | 320° |
| 2026-05-04 13:43 | 41.22931 | -95.82545 | 2497 ft | 179 kts | 319° |
| 2026-05-04 13:43 | 41.23906 | -95.83465 | 2291 ft | 165 kts | 319° |
| 2026-05-04 13:44 | 41.24816 | -95.84339 | 2070 ft | 158 kts | 320° |
| 2026-05-04 13:44 | 41.25701 | -95.85181 | 1879 ft | 156 kts | 322° |
| 2026-05-04 13:44 | 41.26577 | -95.86023 | 1648 ft | 154 kts | 320° |
| 2026-05-04 13:44 | 41.27429 | -95.86850 | 1467 ft | 150 kts | 323° |
| 2026-05-04 13:45 | 41.28272 | -95.87644 | 1256 ft | 151 kts | 323° |
| 2026-05-04 13:45 | 41.29121 | -95.88458 | 1055 ft | 149 kts | 324° |
| 2026-05-04 13:45 | 41.29905 | -95.89205 | 986 ft | 129 kts | 323° |
| 2026-05-04 13:45 | 41.30454 | -95.89725 | 988 ft | 66 kts | 324° |
| 2026-05-04 13:46 | 41.30728 | -95.89989 | 988 ft | 24 kts | 326° |
| 2026-05-04 13:46 | 41.30782 | -95.90145 | 984 ft | 21 kts | 241° |
| 2026-05-04 13:46 | 41.30702 | -95.90135 | 985 ft | 14 kts | 147° |
| 2026-05-04 13:46 | 41.30632 | -95.90076 | 986 ft | 13 kts | 147° |
| 2026-05-04 13:47 | 41.30561 | -95.90006 | 986 ft | 13 kts | 144° |
| 2026-05-04 13:47 | 41.30492 | -95.89938 | 989 ft | 14 kts | 147° |
| 2026-05-04 13:47 | 41.30415 | -95.89868 | 987 ft | 17 kts | 144° |
| 2026-05-04 13:47 | 41.30290 | -95.89748 | 992 ft | 28 kts | 144° |
| 2026-05-04 13:48 | 41.30122 | -95.89613 | 984 ft | 28 kts | 170° |
| 2026-05-04 13:48 | 41.29934 | -95.89604 | 987 ft | 26 kts | 180° |
| 2026-05-04 13:48 | 41.29789 | -95.89660 | 987 ft | 16 kts | 247° |
| 2026-05-04 13:48 | 41.29772 | -95.89726 | 984 ft | 6 kts | 262° |
| 2026-05-04 13:49 | 41.29770 | -95.89765 | 984 ft | 2 kts | 268° |
| 2026-05-04 13:49 | 41.29770 | -95.89766 | 984 ft | 0 kts | 268° |